Time;durP1;ratioP1;P1;durP2;ratioP2;P2;SDS_P1;SDS_P2;PMS_P1;PMS_P2;Temp;Humidity;BMP_temperature;BMP_pressure;BME280_temperature;BME280_humidity;BME280_pressure;Samples;Min_cycle;Max_cycle;Signal;HPM_P1;HPM_P2
2021/09/11 00:01:44;;;;;;;10.75;8.15;;;;;;;19.80;87.70;101395.47;4973245;28;20046;-59
2021/09/11 00:04:12;;;;;;;12.77;8.85;;;;;;;19.79;87.82;101396.59;4973272;28;20039;-60
2021/09/11 00:06:39;;;;;;;11.18;8.00;;;;;;;19.76;87.82;101397.22;4972752;28;20047;-60
2021/09/11 00:09:07;;;;;;;9.65;7.60;;;;;;;19.74;87.78;101393.94;4972516;28;20058;-59
2021/09/11 00:11:35;;;;;;;14.85;10.35;;;;;;;19.73;87.85;101389.56;4973270;28;20094;-60
2021/09/11 00:14:02;;;;;;;15.50;10.85;;;;;;;19.73;88.06;101393.16;4973201;28;20038;-60
2021/09/11 00:16:30;;;;;;;13.18;8.48;;;;;;;19.73;87.98;101393.16;4972911;28;20122;-60
2021/09/11 00:18:58;;;;;;;12.40;9.00;;;;;;;19.72;87.87;101387.91;4973116;28;20039;-60
2021/09/11 00:21:27;;;;;;;12.63;8.10;;;;;;;19.71;87.80;101389.88;4972284;28;20503;-60
2021/09/11 00:23:54;;;;;;;18.58;10.52;;;;;;;19.71;87.61;101383.53;4973115;28;20062;-58
2021/09/11 00:26:22;;;;;;;13.00;8.63;;;;;;;19.72;87.27;101390.69;4972878;28;20065;-59
2021/09/11 00:28:51;;;;;;;11.23;8.48;;;;;;;19.71;86.51;101394.59;4973092;28;20126;-59
2021/09/11 00:31:18;;;;;;;14.77;8.27;;;;;;;19.65;86.63;101390.28;4972745;28;20414;-59
2021/09/11 00:33:46;;;;;;;12.57;9.15;;;;;;;19.60;86.68;101388.47;4972525;28;20039;-59
2021/09/11 00:36:13;;;;;;;13.13;8.68;;;;;;;19.60;86.42;101388.47;4972838;28;20082;-60
2021/09/11 00:38:41;;;;;;;11.82;8.30;;;;;;;19.57;86.07;101389.09;4972766;28;20045;-60
2021/09/11 00:41:09;;;;;;;15.65;8.70;;;;;;;19.51;85.22;101395.91;4972812;28;20495;-60
2021/09/11 00:43:47;;;;;;;12.18;8.80;;;;;;;19.43;85.10;101400.22;4972861;28;20098;-58
2021/09/11 00:46:15;;;;;;;14.13;8.70;;;;;;;19.40;85.14;101398.09;4972899;28;20049;-60
2021/09/11 00:48:43;;;;;;;13.25;8.48;;;;;;;19.36;84.59;101397.91;4972358;28;20043;-61
2021/09/11 00:51:13;;;;;;;14.43;8.25;;;;;;;19.33;84.83;101395.75;4972887;28;20043;-60
2021/09/11 00:53:41;;;;;;;13.50;8.35;;;;;;;19.34;84.60;101396.59;4972640;28;20049;-60
2021/09/11 00:56:08;;;;;;;15.38;8.25;;;;;;;19.34;84.59;101394.63;4972665;28;20051;-61
2021/09/11 00:58:36;;;;;;;11.32;7.13;;;;;;;19.35;84.53;101392.69;4972758;28;20046;-61
2021/09/11 01:01:04;;;;;;;13.02;7.97;;;;;;;19.36;84.48;101394.31;4972324;28;20465;-60
2021/09/11 01:03:32;;;;;;;12.00;8.50;;;;;;;19.35;84.56;101393.50;4972219;28;20421;-58
2021/09/11 01:06:05;;;;;;;12.45;8.18;;;;;;;19.37;84.61;101393.19;4971451;28;20097;-59
2021/09/11 01:08:34;;;;;;;12.43;7.40;;;;;;;19.38;84.55;101397.56;4955476;28;20129;-59
2021/09/11 01:11:01;;;;;;;10.18;6.65;;;;;;;19.38;84.38;101397.56;4971444;28;20070;-60
2021/09/11 01:13:29;;;;;;;12.77;7.45;;;;;;;19.39;84.55;101399.22;4972619;28;20045;-58
2021/09/11 01:15:58;;;;;;;12.45;8.00;;;;;;;19.35;84.19;101404.53;4972137;28;20070;-59
2021/09/11 01:18:26;;;;;;;12.85;7.40;;;;;;;19.36;84.22;101405.34;4972484;28;20219;-60
2021/09/11 01:20:55;;;;;;;5.68;3.70;;;;;;;19.37;84.87;101401.47;4972556;28;20510;-59
2021/09/11 01:23:23;;;;;;;19.85;8.57;;;;;;;19.35;84.33;101398.22;4972293;28;20097;-60
2021/09/11 01:25:51;;;;;;;10.60;6.72;;;;;;;19.31;84.10;101408.25;4972434;28;20047;-60
2021/09/11 01:28:19;;;;;;;13.15;8.52;;;;;;;19.27;83.55;101407.25;4972349;28;20039;-59
2021/09/11 01:30:48;;;;;;;12.52;8.15;;;;;;;19.23;83.35;101407.06;4970880;28;20110;-59
2021/09/11 01:33:15;;;;;;;9.10;6.57;;;;;;;19.24;83.58;101408.69;4975338;28;20051;-60
2021/09/11 01:35:43;;;;;;;12.32;8.82;;;;;;;19.20;82.61;101407.69;4975933;28;20126;-60
2021/09/11 01:38:10;;;;;;;11.98;8.10;;;;;;;19.17;82.56;101402.78;4976129;28;20043;-59
2021/09/11 01:40:38;;;;;;;13.93;7.07;;;;;;;19.18;82.60;101409.13;4976053;28;20045;-59
2021/09/11 01:43:06;;;;;;;12.05;8.23;;;;;;;19.16;82.45;101412.19;4976067;28;20117;-59
2021/09/11 01:45:33;;;;;;;12.00;7.75;;;;;;;19.12;82.08;101412.00;4975654;28;20047;-59
2021/09/11 01:48:01;;;;;;;13.05;8.45;;;;;;;19.09;82.07;101409.03;4975779;28;20050;-59
2021/09/11 01:50:28;;;;;;;9.98;6.93;;;;;;;19.08;82.41;101411.00;4976179;28;20038;-59
2021/09/11 01:52:56;;;;;;;11.48;7.90;;;;;;;19.09;82.08;101409.03;4974383;28;20082;-61
2021/09/11 01:55:23;;;;;;;11.25;6.82;;;;;;;19.08;82.14;101412.94;4975872;28;20047;-59
2021/09/11 01:57:51;;;;;;;13.02;7.63;;;;;;;19.07;82.17;101419.59;4975643;28;20232;-60
2021/09/11 02:00:20;;;;;;;11.15;6.85;;;;;;;19.05;81.67;101419.06;4975845;28;20133;-57
2021/09/11 02:02:48;;;;;;;14.80;8.65;;;;;;;19.02;81.61;101423.28;4975477;28;20046;-59
2021/09/11 02:05:17;;;;;;;11.57;7.30;;;;;;;18.99;81.57;101429.44;4975891;28;20038;-55
2021/09/11 02:07:46;;;;;;;11.80;8.45;;;;;;;19.00;81.73;101427.47;4975572;28;20051;-58
2021/09/11 02:10:14;;;;;;;10.52;7.35;;;;;;;18.99;82.23;101429.44;4975357;28;20031;-58
2021/09/11 02:12:42;;;;;;;11.98;6.47;;;;;;;19.00;82.01;101421.94;4973613;28;20046;-56
2021/09/11 02:15:10;;;;;;;10.55;6.80;;;;;;;19.00;81.74;101424.72;4973845;28;20050;-54
2021/09/11 02:17:39;;;;;;;11.50;7.00;;;;;;;18.98;81.79;101427.81;4974846;28;20516;-57
2021/09/11 02:20:07;;;;;;;10.50;6.78;;;;;;;18.98;81.96;101424.19;4975225;28;20046;-56
2021/09/11 02:22:35;;;;;;;11.43;7.35;;;;;;;18.99;82.04;101423.91;4974231;28;20586;-60
2021/09/11 02:25:03;;;;;;;10.27;6.57;;;;;;;19.00;82.20;101419.19;4975063;28;20050;-61
2021/09/11 02:27:31;;;;;;;11.88;6.40;;;;;;;19.00;82.31;101420.03;4975444;28;20550;-60
2021/09/11 02:29:58;;;;;;;12.52;7.50;;;;;;;18.99;82.21;101420.31;4974247;28;20038;-60
2021/09/11 02:32:26;;;;;;;11.40;6.68;;;;;;;18.97;82.33;101422.56;4974981;28;20065;-59
2021/09/11 02:34:54;;;;;;;10.60;6.22;;;;;;;18.94;82.56;101432.31;4975036;28;20047;-60
2021/09/11 02:37:21;;;;;;;9.85;5.72;;;;;;;18.93;82.68;101419.63;4975150;28;20043;-59
2021/09/11 02:39:49;;;;;;;11.02;6.82;;;;;;;18.92;82.75;101417.97;4974883;28;20039;-57
2021/09/11 02:42:17;;;;;;;9.60;6.07;;;;;;;18.91;82.69;101416.34;4974728;28;20039;-58
2021/09/11 02:44:44;;;;;;;11.10;5.85;;;;;;;18.96;82.89;101420.97;4972630;28;20046;-58
2021/09/11 02:47:12;;;;;;;13.85;7.72;;;;;;;18.87;82.25;101415.34;4974753;28;20051;-57
2021/09/11 02:49:39;;;;;;;8.82;5.30;;;;;;;18.88;82.64;101416.97;4974946;28;20057;-58
2021/09/11 02:52:07;;;;;;;9.00;5.80;;;;;;;18.86;83.01;101417.28;4974812;28;20085;-59
2021/09/11 02:54:34;;;;;;;10.55;6.43;;;;;;;18.86;82.70;101417.28;4973565;28;20089;-59
2021/09/11 02:57:02;;;;;;;9.50;7.15;;;;;;;18.82;82.16;101424.53;4973968;28;20109;-58
2021/09/11 02:59:31;;;;;;;13.70;7.28;;;;;;;18.81;82.65;101427.59;4973977;28;20043;-58
2021/09/11 03:01:58;;;;;;;13.10;7.50;;;;;;;18.78;82.42;101423.53;4986680;28;20046;-60
2021/09/11 03:04:26;;;;;;;13.45;7.75;;;;;;;18.79;82.69;101422.41;4994091;28;20402;-59
2021/09/11 03:06:54;;;;;;;10.75;6.40;;;;;;;18.73;82.48;101421.66;4994746;28;20049;-56
2021/09/11 03:09:21;;;;;;;12.82;6.72;;;;;;;18.73;82.49;101421.66;4994201;28;20038;-58
2021/09/11 03:11:49;;;;;;;11.90;6.50;;;;;;;18.73;82.34;101424.41;4994310;28;20509;-59
2021/09/11 03:14:16;;;;;;;12.52;6.18;;;;;;;18.73;82.38;101416.13;4995687;28;20038;-59
2021/09/11 03:16:44;;;;;;;10.65;6.55;;;;;;;18.72;82.17;101414.50;4993582;28;20593;-59
2021/09/11 03:19:12;;;;;;;9.07;6.05;;;;;;;18.73;82.19;101420.84;4993719;28;20050;-57
2021/09/11 03:21:39;;;;;;;10.45;5.55;;;;;;;18.73;82.19;101415.31;4973199;28;20073;-59
2021/09/11 03:24:07;;;;;;;9.00;5.53;;;;;;;18.74;83.01;101417.78;4974237;28;20049;-59
2021/09/11 03:26:34;;;;;;;8.75;5.78;;;;;;;18.71;81.56;101418.41;4973497;28;20043;-59
2021/09/11 03:29:03;;;;;;;9.88;5.65;;;;;;;18.72;82.29;101416.47;4974051;28;20051;-57
2021/09/11 03:31:32;;;;;;;9.82;6.00;;;;;;;18.72;82.22;101410.94;4974125;28;20059;-59
2021/09/11 03:34:00;;;;;;;9.80;5.68;;;;;;;18.68;82.00;101412.66;4975217;28;20093;-59
2021/09/11 03:36:27;;;;;;;9.88;4.80;;;;;;;18.65;82.23;101413.28;4974209;28;20464;-59
2021/09/11 03:38:55;;;;;;;9.70;4.97;;;;;;;18.70;82.82;101418.72;4972695;28;20047;-58
2021/09/11 03:41:23;;;;;;;9.80;5.80;;;;;;;18.65;81.56;101413.28;4973788;28;20078;-59
2021/09/11 03:43:50;;;;;;;12.38;6.78;;;;;;;18.63;82.00;101421.06;4973616;28;20047;-58
2021/09/11 03:46:18;;;;;;;10.38;6.18;;;;;;;18.62;81.85;101425.78;4973763;28;20049;-59
2021/09/11 03:48:46;;;;;;;11.90;5.60;;;;;;;18.61;82.04;101429.63;4973474;28;20454;-60
2021/09/11 03:51:13;;;;;;;12.85;5.53;;;;;;;18.58;81.70;101423.94;4973528;28;20053;-59
2021/09/11 03:53:41;;;;;;;8.25;5.53;;;;;;;18.57;81.58;101425.03;4973476;28;20073;-59
2021/09/11 03:56:08;;;;;;;8.13;5.03;;;;;;;18.56;81.80;101427.00;4972406;28;20042;-60
2021/09/11 03:58:36;;;;;;;8.50;5.07;;;;;;;18.56;81.64;101431.69;4973031;28;20039;-59
2021/09/11 04:01:04;;;;;;;9.85;5.55;;;;;;;18.57;81.49;101427.78;4973618;28;20042;-60
2021/09/11 04:03:32;;;;;;;9.95;5.05;;;;;;;18.57;81.41;101433.31;4973262;28;20553;-60
2021/09/11 04:06:00;;;;;;;9.25;5.82;;;;;;;18.56;81.21;101434.47;4973079;28;20046;-60
2021/09/11 04:08:30;;;;;;;7.60;4.75;;;;;;;18.60;82.02;101439.06;4973418;28;20074;-58
2021/09/11 04:10:58;;;;;;;9.88;5.50;;;;;;;18.57;81.16;101436.06;4972968;28;20512;-58
2021/09/11 04:13:26;;;;;;;9.23;4.65;;;;;;;18.56;81.67;101437.22;4971703;28;20035;-60
2021/09/11 04:15:54;;;;;;;10.05;5.40;;;;;;;18.56;81.46;101437.22;4973098;28;20041;-59
2021/09/11 04:18:22;;;;;;;9.88;5.57;;;;;;;18.52;80.93;101431.50;4973134;28;20047;-60
2021/09/11 04:20:49;;;;;;;9.43;5.07;;;;;;;18.51;81.38;101436.19;4972909;28;20046;-59
2021/09/11 04:23:17;;;;;;;9.65;5.10;;;;;;;18.48;81.01;101441.50;4973014;28;20460;-58
2021/09/11 04:25:45;;;;;;;8.20;4.80;;;;;;;18.55;82.38;101447.44;4972915;28;20422;-59
2021/09/11 04:28:13;;;;;;;9.07;4.60;;;;;;;18.61;83.16;101446.19;4972858;28;20043;-59
2021/09/11 04:30:40;;;;;;;9.57;4.97;;;;;;;18.69;81.56;101445.50;4973051;28;20058;-58
2021/09/11 04:33:08;;;;;;;8.40;4.47;;;;;;;18.60;81.09;101430.78;4972730;28;20420;-59
2021/09/11 04:35:35;;;;;;;9.23;5.15;;;;;;;18.52;80.78;101437.84;4971681;28;20043;-60
2021/09/11 04:38:03;;;;;;;7.10;4.45;;;;;;;18.54;81.37;101434.75;4973030;28;20054;-57
2021/09/11 04:40:31;;;;;;;8.43;4.43;;;;;;;18.51;81.79;101435.38;4972750;28;20050;-54
2021/09/11 04:42:58;;;;;;;9.02;4.57;;;;;;;18.50;81.84;101433.75;4973046;28;20042;-59
2021/09/11 04:45:26;;;;;;;7.38;3.97;;;;;;;18.57;82.15;101444.34;4972786;28;20046;-56
2021/09/11 04:47:53;;;;;;;8.57;4.35;;;;;;;18.59;81.05;101448.47;4972855;28;20516;-60
2021/09/11 04:50:21;;;;;;;6.72;3.80;;;;;;;18.53;81.42;101444.16;4972823;28;20055;-59
2021/09/11 04:52:49;;;;;;;9.07;4.07;;;;;;;18.53;81.95;101444.16;4972696;28;20517;-60
2021/09/11 04:55:17;;;;;;;11.00;4.57;;;;;;;18.56;80.95;101449.06;4971983;28;20046;-60
2021/09/11 04:57:44;;;;;;;7.15;3.88;;;;;;;18.52;82.05;101448.06;4972929;28;20055;-58
2021/09/11 05:00:13;;;;;;;6.57;3.83;;;;;;;18.49;81.63;101448.66;4972601;28;20052;-60
2021/09/11 05:02:41;;;;;;;6.72;3.95;;;;;;;18.49;81.96;101440.38;4972623;28;20039;-60
2021/09/11 05:05:09;;;;;;;7.90;4.10;;;;;;;18.49;81.92;101445.91;4972581;28;20502;-61
2021/09/11 05:07:37;;;;;;;9.55;4.38;;;;;;;18.50;82.33;101444.78;4973330;28;20046;-59
2021/09/11 05:10:05;;;;;;;7.38;3.45;;;;;;;18.54;82.96;101445.78;4976269;28;20038;-61
2021/09/11 05:12:33;;;;;;;10.05;3.83;;;;;;;18.57;82.83;101439.69;4976430;28;20045;-60
2021/09/11 05:15:00;;;;;;;7.97;4.13;;;;;;;18.53;82.09;101444.97;4976461;28;20050;-61
2021/09/11 05:17:28;;;;;;;6.85;3.53;;;;;;;18.52;82.42;101451.63;4976112;28;20066;-60
2021/09/11 05:19:56;;;;;;;9.57;5.32;;;;;;;18.50;81.90;101444.78;4976327;28;20039;-60
2021/09/11 05:22:23;;;;;;;8.63;4.40;;;;;;;18.47;81.93;101450.91;4974861;28;20158;-60
2021/09/11 05:24:51;;;;;;;10.90;4.65;;;;;;;18.55;82.55;101449.41;4975695;28;20048;-60
2021/09/11 05:27:18;;;;;;;8.05;3.47;;;;;;;18.49;82.66;101451.41;4976449;28;20394;-61
2021/09/11 05:29:46;;;;;;;7.18;3.95;;;;;;;18.48;82.29;101449.78;4976445;28;20094;-60
2021/09/11 05:32:14;;;;;;;8.55;4.03;;;;;;;18.44;82.35;101457.03;4975738;28;20055;-56
2021/09/11 05:34:41;;;;;;;10.48;4.45;;;;;;;18.41;82.23;101458.47;4975869;28;20049;-60
2021/09/11 05:37:09;;;;;;;7.15;3.78;;;;;;;18.44;82.87;101465.31;4976168;28;20042;-60
2021/09/11 05:39:36;;;;;;;10.45;4.30;;;;;;;18.38;82.18;101463.78;4975915;28;20053;-58
2021/09/11 05:42:04;;;;;;;9.02;3.95;;;;;;;18.42;82.58;101459.28;4975862;28;20035;-59
2021/09/11 05:44:32;;;;;;;8.55;3.83;;;;;;;18.43;82.67;101461.75;4975840;28;20042;-58
2021/09/11 05:47:00;;;;;;;9.13;3.85;;;;;;;18.41;83.11;101469.50;4975360;28;20045;-59
2021/09/11 05:49:27;;;;;;;6.88;3.88;;;;;;;18.42;82.88;101465.59;4974579;28;20050;-61
2021/09/11 05:51:55;;;;;;;6.05;3.45;;;;;;;18.49;83.21;101462.44;4975516;28;20129;-58
2021/09/11 05:54:22;;;;;;;12.32;4.32;;;;;;;18.55;82.73;101463.19;4977723;28;20068;-59
2021/09/11 05:56:50;;;;;;;11.48;4.32;;;;;;;18.45;82.04;101464.22;4980653;28;20550;-60
2021/09/11 05:59:17;;;;;;;11.48;4.78;;;;;;;18.36;82.19;101471.56;4975361;28;20038;-56
2021/09/11 06:01:45;;;;;;;7.90;4.28;;;;;;;18.33;82.27;101472.13;4975253;28;20119;-59
2021/09/11 06:04:13;;;;;;;7.72;3.75;;;;;;;18.37;83.40;101471.22;4975299;28;20050;-55
2021/09/11 06:06:41;;;;;;;11.23;4.43;;;;;;;18.43;83.38;101471.97;4975259;28;20051;-59
2021/09/11 06:09:09;;;;;;;9.05;4.57;;;;;;;18.37;82.72;101467.66;4990279;28;20047;-59
2021/09/11 06:11:36;;;;;;;8.00;4.38;;;;;;;18.45;83.38;101472.50;4975446;28;20080;-59
2021/09/11 06:14:04;;;;;;;9.02;4.18;;;;;;;18.50;82.83;101484.25;4975081;28;20091;-56
2021/09/11 06:16:32;;;;;;;8.05;4.55;;;;;;;18.48;82.88;101478.19;4975242;28;20078;-53
2021/09/11 06:18:59;;;;;;;9.95;4.60;;;;;;;18.45;83.05;101494.56;4974090;28;20109;-60
2021/09/11 06:21:27;;;;;;;8.25;3.80;;;;;;;18.52;83.40;101492.22;4974852;28;20038;-56
2021/09/11 06:23:54;;;;;;;7.22;4.25;;;;;;;18.52;83.21;101497.75;4974834;28;20158;-59
2021/09/11 06:26:22;;;;;;;9.55;3.25;;;;;;;18.53;83.16;101493.84;4974717;28;20047;-58
2021/09/11 06:28:50;;;;;;;10.23;4.28;;;;;;;18.52;82.50;101493.03;4974824;28;20071;-58
2021/09/11 06:31:17;;;;;;;11.38;4.65;;;;;;;18.48;82.87;101496.72;4973481;28;20441;-58
2021/09/11 06:33:45;;;;;;;10.15;4.53;;;;;;;18.42;82.87;101486.88;4975020;28;20390;-57
2021/09/11 06:36:13;;;;;;;8.35;3.58;;;;;;;18.51;83.15;101490.56;4974844;28;20054;-56
2021/09/11 06:38:40;;;;;;;7.78;4.10;;;;;;;18.54;82.90;101484.44;4974531;28;20047;-58
2021/09/11 06:41:08;;;;;;;6.18;3.58;;;;;;;18.58;82.82;101485.47;4974709;28;20066;-53
2021/09/11 06:43:35;;;;;;;11.95;4.80;;;;;;;18.63;81.86;101490.88;4974722;28;20049;-52
2021/09/11 06:46:03;;;;;;;7.68;4.28;;;;;;;18.52;82.40;101503.25;4974428;28;20043;-60
2021/09/11 06:48:31;;;;;;;9.05;3.38;;;;;;;18.51;82.74;101504.38;4974647;28;20058;-59
2021/09/11 06:50:58;;;;;;;12.27;4.05;;;;;;;18.48;82.56;101510.50;4974363;28;20053;-58
2021/09/11 06:53:26;;;;;;;11.32;4.20;;;;;;;18.47;83.02;101517.13;4974440;28;20125;-59
2021/09/11 06:55:54;;;;;;;9.52;4.45;;;;;;;18.47;83.09;101514.38;4974478;28;20066;-60
2021/09/11 06:58:21;;;;;;;9.23;4.30;;;;;;;18.47;82.86;101517.13;4974656;28;20093;-60
2021/09/11 07:00:49;;;;;;;10.30;4.10;;;;;;;18.42;83.00;101515.28;4974209;28;20061;-60
2021/09/11 07:03:17;;;;;;;12.48;4.50;;;;;;;18.65;82.84;101512.66;4974513;28;20043;-59
2021/09/11 07:05:44;;;;;;;9.68;4.40;;;;;;;18.71;81.89;101512.28;4973825;28;20045;-60
2021/09/11 07:08:12;;;;;;;11.52;5.13;;;;;;;18.66;81.88;101520.63;4973194;28;20129;-60
2021/09/11 07:10:42;;;;;;;9.20;4.53;;;;;;;18.65;82.29;101521.75;4974219;28;20051;-60
2021/09/11 07:13:09;;;;;;;9.50;4.82;;;;;;;18.62;82.68;101535.38;4974538;28;20070;-58
2021/09/11 07:15:37;;;;;;;12.05;5.30;;;;;;;18.57;82.54;101533.53;4974215;28;20142;-59
2021/09/11 07:18:05;;;;;;;11.43;5.07;;;;;;;18.52;82.90;101528.09;4974064;28;20126;-60
2021/09/11 07:20:32;;;;;;;11.48;5.45;;;;;;;18.47;82.83;101528.16;4979035;28;20053;-59
2021/09/11 07:23:01;;;;;;;17.20;5.70;;;;;;;18.52;83.11;101530.84;4977670;28;20045;-59
2021/09/11 07:25:29;;;;;;;12.43;5.43;;;;;;;18.48;82.92;101529.81;4973864;28;20034;-59
2021/09/11 07:27:56;;;;;;;17.48;6.55;;;;;;;18.60;82.69;101535.66;4973844;28;20113;-59
2021/09/11 07:30:24;;;;;;;16.38;6.15;;;;;;;18.68;82.51;101534.13;4973621;28;20461;-58
2021/09/11 07:32:51;;;;;;;11.45;5.03;;;;;;;18.64;82.67;101530.34;4973596;28;20059;-59
2021/09/11 07:35:20;;;;;;;9.48;4.88;;;;;;;18.60;82.93;101521.84;4973434;28;20133;-61
2021/09/11 07:37:48;;;;;;;10.35;5.13;;;;;;;18.60;83.08;101521.84;4974091;28;20043;-60
2021/09/11 07:40:15;;;;;;;12.60;4.85;;;;;;;18.68;83.06;101518.38;4973476;28;20047;-59
2021/09/11 07:42:43;;;;;;;11.13;4.82;;;;;;;18.66;82.83;101522.56;4973689;28;20490;-61
2021/09/11 07:45:13;;;;;;;10.20;4.05;;;;;;;18.70;83.08;101529.94;4973448;28;20043;-58
2021/09/11 07:47:42;;;;;;;11.60;4.97;;;;;;;18.75;82.70;101529.03;4973662;28;20042;-60
2021/09/11 07:50:10;;;;;;;14.50;5.30;;;;;;;18.77;82.50;101528.75;4973579;28;20045;-60
2021/09/11 07:52:39;;;;;;;14.82;6.32;;;;;;;18.74;82.40;101528.22;4973710;28;20066;-60
2021/09/11 07:55:08;;;;;;;11.88;6.50;;;;;;;18.80;82.47;101541.94;4973434;28;20061;-59
2021/09/11 07:57:35;;;;;;;12.10;6.38;;;;;;;18.78;82.26;101538.66;4973448;28;20047;-59
2021/09/11 08:00:04;;;;;;;12.82;7.38;;;;;;;18.73;82.64;101534.03;4973443;28;20215;-60
2021/09/11 08:02:32;;;;;;;12.63;4.65;;;;;;;18.73;83.06;101534.84;4972844;28;20039;-60
2021/09/11 08:04:59;;;;;;;12.35;5.90;;;;;;;18.76;82.97;101535.34;4973143;28;20050;-60
2021/09/11 08:07:28;;;;;;;12.43;5.05;;;;;;;18.85;82.93;101539.88;4972987;28;20509;-60
2021/09/11 08:09:56;;;;;;;12.20;5.57;;;;;;;19.08;81.69;101538.06;4973422;28;20042;-60
2021/09/11 08:12:24;;;;;;;16.10;7.32;;;;;;;19.01;81.69;101537.66;4973285;28;20077;-60
2021/09/11 08:14:52;;;;;;;13.10;7.03;;;;;;;18.96;81.97;101540.53;4973004;28;20075;-60
2021/09/11 08:17:19;;;;;;;14.93;8.50;;;;;;;18.91;82.19;101546.16;4972581;28;20043;-60
2021/09/11 08:19:47;;;;;;;13.52;7.07;;;;;;;18.88;82.24;101549.50;4972739;28;20467;-60
2021/09/11 08:22:14;;;;;;;18.50;10.13;;;;;;;18.88;82.11;101557.78;4973318;28;20050;-60
2021/09/11 08:24:42;;;;;;;15.07;8.68;;;;;;;18.86;82.13;101557.31;4971891;28;20051;-60
2021/09/11 08:27:10;;;;;;;15.15;8.23;;;;;;;18.86;82.43;101557.31;4973416;28;20046;-59
2021/09/11 08:29:37;;;;;;;13.23;7.45;;;;;;;18.87;82.69;101558.91;4971886;28;20062;-59
2021/09/11 08:32:05;;;;;;;15.10;8.70;;;;;;;18.80;82.54;101566.78;4972324;28;20498;-59
2021/09/11 08:34:33;;;;;;;10.23;4.80;;;;;;;18.99;82.11;101564.75;4972627;28;20494;-60
2021/09/11 08:37:01;;;;;;;15.43;8.20;;;;;;;19.05;81.68;101566.31;4972680;28;20047;-60
2021/09/11 08:39:28;;;;;;;12.38;8.48;;;;;;;18.91;81.45;101573.75;4972991;28;20035;-59
2021/09/11 08:41:57;;;;;;;12.85;4.93;;;;;;;18.91;82.21;101587.56;4972449;28;20126;-60
2021/09/11 08:44:26;;;;;;;14.13;6.63;;;;;;;18.91;82.41;101582.06;4973508;28;20551;-60
2021/09/11 08:46:57;;;;;;;15.05;10.40;;;;;;;18.91;81.37;101576.53;4973316;28;20133;-59
2021/09/11 08:49:24;;;;;;;15.18;9.88;;;;;;;18.84;81.59;101571.41;4974712;28;20065;-60
2021/09/11 08:51:52;;;;;;;12.43;7.40;;;;;;;18.81;82.05;101582.22;4975950;28;20071;-61
2021/09/11 08:54:20;;;;;;;18.60;9.68;;;;;;;18.78;82.48;101578.13;4977290;28;20053;-61
2021/09/11 08:56:50;;;;;;;14.55;8.18;;;;;;;18.82;82.51;101572.84;4977623;28;20046;-59
2021/09/11 08:59:19;;;;;;;13.20;7.10;;;;;;;18.89;82.38;101578.78;4977786;28;20053;-60
2021/09/11 09:02:08;;;;;;;13.50;8.23;;;;;;;18.94;82.42;101586.94;4975238;28;20045;-59
2021/09/11 09:04:48;;;;;;;12.38;6.68;;;;;;;19.05;82.16;101576.50;4972035;28;20047;-61
2021/09/11 09:07:38;;;;;;;10.85;7.15;;;;;;;19.12;81.60;101583.28;4973243;28;20054;-59
2021/09/11 09:10:15;;;;;;;15.32;9.18;;;;;;;19.13;81.49;101590.44;4971603;28;20057;-58
2021/09/11 09:12:44;;;;;;;15.00;8.13;;;;;;;19.09;81.47;101594.13;4972804;28;20121;-56
2021/09/11 09:15:18;;;;;;;10.95;6.20;;;;;;;19.01;82.00;101598.41;4973402;28;20054;-60
2021/09/11 09:17:53;;;;;;;13.48;5.78;;;;;;;19.05;82.08;101604.97;4971071;28;20142;-58
2021/09/11 09:20:22;;;;;;;13.35;6.57;;;;;;;19.11;81.66;101598.19;4971193;28;20062;-59
2021/09/11 09:22:58;;;;;;;8.77;5.03;;;;;;;19.12;81.67;101599.84;4971153;28;20494;-59
2021/09/11 09:25:29;;;;;;;;;;;;;;;19.10;81.50;101601.28;4972487;28;20054;-60
2021/09/11 09:28:03;;;;;;;10.93;5.90;;;;;;;18.99;82.02;101597.91;4971039;28;20013;-60
2021/09/11 09:30:49;;;;;;;7.50;3.67;;;;;;;19.01;82.08;101601.19;4971769;28;20038;-60
2021/09/11 09:33:22;;;;;;;10.95;6.63;;;;;;;18.95;82.32;101602.38;4972203;28;20055;-60
2021/09/11 09:35:50;;;;;;;12.00;7.75;;;;;;;18.88;83.00;101610.25;4972167;28;20054;-60
2021/09/11 09:38:18;;;;;;;12.52;7.18;;;;;;;18.89;83.09;101601.66;4972111;28;20039;-60
2021/09/11 09:40:50;;;;;;;10.63;6.30;;;;;;;18.96;82.94;101606.81;4987731;28;20053;-59
2021/09/11 09:43:42;;;;;;;11.60;5.13;;;;;;;18.98;82.63;101604.56;4972109;28;20074;-60
2021/09/11 09:46:12;;;;;;;13.38;6.80;;;;;;;18.98;83.02;101610.09;4971901;28;20121;-57
2021/09/11 09:48:42;;;;;;;14.02;8.63;;;;;;;19.05;82.72;101598.59;4987045;28;20046;-60
2021/09/11 09:51:14;;;;;;;15.43;8.57;;;;;;;18.95;83.33;101605.16;4972003;28;20489;-61
2021/09/11 09:53:43;;;;;;;12.20;8.25;;;;;;;19.03;83.03;101601.69;4974438;28;20045;-60
2021/09/11 09:56:12;;;;;;;16.77;7.45;;;;;;;18.99;83.07;101597.91;4975521;28;20391;-60
2021/09/11 09:58:39;;;;;;;13.32;7.88;;;;;;;18.94;83.57;101604.34;4974313;28;20425;-61
2021/09/11 10:01:07;;;;;;;13.68;7.72;;;;;;;18.90;83.54;101602.50;4975061;28;20051;-62
2021/09/11 10:03:35;;;;;;;14.05;7.68;;;;;;;18.98;83.16;101599.03;4975410;28;20428;-60
2021/09/11 10:06:12;;;;;;;11.25;6.60;;;;;;;19.04;82.75;101603.31;4975759;28;20054;-59
2021/09/11 10:08:59;;;;;;;10.43;6.28;;;;;;;19.07;82.69;101601.88;4974177;28;20489;-61
2021/09/11 10:11:38;;;;;;;11.00;5.85;;;;;;;19.07;82.81;101597.19;4958086;28;20558;-59
2021/09/11 10:14:11;;;;;;;8.43;4.47;;;;;;;19.25;81.95;101597.41;4974874;28;20039;-60
2021/09/11 10:16:41;;;;;;;14.80;9.40;;;;;;;19.35;81.70;101588.88;4975237;28;20445;-60
2021/09/11 10:19:20;;;;;;;14.13;9.65;;;;;;;19.37;81.34;101594.94;4975466;28;20081;-60
2021/09/11 10:21:50;;;;;;;11.85;8.18;;;;;;;19.31;81.29;101596.16;4973567;28;20046;-60
2021/09/11 10:24:24;;;;;;;13.15;7.07;;;;;;;19.36;81.22;101587.75;4941983;28;20038;-60
2021/09/11 10:26:52;;;;;;;16.75;10.38;;;;;;;19.30;81.88;101583.47;4975052;28;20135;-61
2021/09/11 10:29:39;;;;;;;6.82;3.55;;;;;;;19.35;81.39;101586.13;4974746;28;20039;-61
2021/09/11 10:32:19;;;;;;;9.73;6.18;;;;;;;19.38;81.43;101585.50;4974994;28;20046;-60
2021/09/11 10:34:53;;;;;;;8.38;5.07;;;;;;;19.47;81.02;101578.13;4973497;28;20046;-61
2021/09/11 10:37:34;;;;;;;13.68;8.95;;;;;;;19.47;81.03;101583.66;4975097;28;20070;-59
2021/09/11 10:40:29;;;;;;;19.45;11.27;;;;;;;19.39;81.32;101583.56;4974682;28;20042;-60
2021/09/11 10:43:08;;;;;;;17.58;10.38;;;;;;;19.39;81.50;101584.38;4974186;28;20047;-59
2021/09/11 10:45:57;;;;;;;14.45;10.18;;;;;;;19.43;81.53;101584.56;4974697;28;20057;-60
2021/09/11 10:48:33;;;;;;;9.52;6.13;;;;;;;19.47;80.96;101582.84;4974524;28;20498;-60
2021/09/11 10:51:20;;;;;;;16.98;9.80;;;;;;;19.44;80.97;101583.47;4974886;28;20034;-60
2021/09/11 10:54:07;;;;;;;7.88;4.45;;;;;;;19.49;80.79;101586.91;4974505;28;20129;-60
2021/09/11 10:56:38;;;;;;;19.35;9.98;;;;;;;19.49;80.53;101581.41;4974194;28;20217;-61
2021/09/11 10:59:15;;;;;;;14.98;9.13;;;;;;;19.44;80.62;101583.47;4974283;28;20053;-61
2021/09/11 11:02:09;;;;;;;15.13;9.65;;;;;;;19.41;81.09;101584.06;4974346;28;20549;-62
2021/09/11 11:04:46;;;;;;;14.30;10.15;;;;;;;19.50;80.96;101576.69;4973659;28;20453;-60
2021/09/11 11:07:18;;;;;;;6.75;3.80;;;;;;;19.66;80.28;101579.94;4974429;28;20375;-61
2021/09/11 11:09:47;;;;;;;11.05;6.47;;;;;;;19.64;80.31;101584.94;4975126;28;20047;-61
2021/09/11 11:12:21;;;;;;;9.88;4.70;;;;;;;19.62;80.25;101578.91;4973998;28;20058;-62
2021/09/11 11:14:49;;;;;;;9.40;4.45;;;;;;;19.68;80.03;101580.47;4974232;28;20489;-60
2021/09/11 11:17:19;;;;;;;13.25;9.27;;;;;;;19.65;80.26;101578.28;4973864;28;20399;-61
2021/09/11 11:19:48;;;;;;;13.05;9.18;;;;;;;19.64;80.67;101583.00;4956979;28;20394;-60
2021/09/11 11:22:24;;;;;;;7.38;5.45;;;;;;;19.70;80.04;101579.03;4974489;28;20516;-60
2021/09/11 11:24:53;;;;;;;11.52;8.25;;;;;;;19.72;79.97;101576.78;4973493;28;20035;-60
2021/09/11 11:27:23;;;;;;;8.40;4.80;;;;;;;19.74;79.59;101573.69;4973635;28;20057;-60
2021/09/11 11:29:52;;;;;;;9.35;5.50;;;;;;;19.80;79.24;101586.28;4973925;28;20043;-60